sensor_id;sensor_type;location;lat;lon;timestamp;P1;durP1;ratioP1;P2;durP2;ratioP2
19673;SDS011;9986;50.610;7.230;2023-07-22T00:01:20;9.20;;;5.90;;
19673;SDS011;9986;50.610;7.230;2023-07-22T00:04:06;5.83;;;5.23;;
19673;SDS011;9986;50.610;7.230;2023-07-22T00:06:47;6.73;;;5.57;;
19673;SDS011;9986;50.610;7.230;2023-07-22T00:09:33;8.13;;;5.27;;
19673;SDS011;9986;50.610;7.230;2023-07-22T00:12:12;6.60;;;5.77;;
19673;SDS011;9986;50.610;7.230;2023-07-22T00:14:59;7.00;;;4.83;;
19673;SDS011;9986;50.610;7.230;2023-07-22T00:17:49;8.30;;;5.47;;
19673;SDS011;9986;50.610;7.230;2023-07-22T00:20:35;5.60;;;5.10;;
19673;SDS011;9986;50.610;7.230;2023-07-22T00:23:21;10.17;;;5.50;;
19673;SDS011;9986;50.610;7.230;2023-07-22T00:26:08;8.27;;;5.50;;
19673;SDS011;9986;50.610;7.230;2023-07-22T00:31:18;7.00;;;5.07;;
19673;SDS011;9986;50.610;7.230;2023-07-22T00:36:31;17.57;;;5.70;;
19673;SDS011;9986;50.610;7.230;2023-07-22T00:39:09;6.50;;;5.03;;
19673;SDS011;9986;50.610;7.230;2023-07-22T00:41:46;7.13;;;5.30;;
19673;SDS011;9986;50.610;7.230;2023-07-22T00:44:27;5.50;;;5.00;;
19673;SDS011;9986;50.610;7.230;2023-07-22T00:47:07;6.00;;;5.40;;
19673;SDS011;9986;50.610;7.230;2023-07-22T00:49:54;8.63;;;4.97;;
19673;SDS011;9986;50.610;7.230;2023-07-22T00:52:41;9.53;;;5.93;;
19673;SDS011;9986;50.610;7.230;2023-07-22T00:55:19;10.50;;;5.30;;
19673;SDS011;9986;50.610;7.230;2023-07-22T00:58:03;6.00;;;5.40;;
19673;SDS011;9986;50.610;7.230;2023-07-22T01:00:46;7.17;;;4.90;;
19673;SDS011;9986;50.610;7.230;2023-07-22T01:03:33;9.77;;;5.70;;
19673;SDS011;9986;50.610;7.230;2023-07-22T01:06:10;7.43;;;5.10;;
19673;SDS011;9986;50.610;7.230;2023-07-22T01:08:48;7.77;;;6.23;;
19673;SDS011;9986;50.610;7.230;2023-07-22T01:11:32;8.90;;;5.63;;
19673;SDS011;9986;50.610;7.230;2023-07-22T01:14:10;9.00;;;5.33;;
19673;SDS011;9986;50.610;7.230;2023-07-22T01:16:53;6.87;;;5.90;;
19673;SDS011;9986;50.610;7.230;2023-07-22T01:19:37;7.20;;;6.10;;
19673;SDS011;9986;50.610;7.230;2023-07-22T01:24:58;7.73;;;5.33;;
19673;SDS011;9986;50.610;7.230;2023-07-22T01:32:51;7.87;;;5.60;;
19673;SDS011;9986;50.610;7.230;2023-07-22T01:35:29;7.10;;;5.77;;
19673;SDS011;9986;50.610;7.230;2023-07-22T01:40:55;6.47;;;5.70;;
19673;SDS011;9986;50.610;7.230;2023-07-22T01:43:32;7.80;;;5.37;;
19673;SDS011;9986;50.610;7.230;2023-07-22T01:48:45;7.77;;;5.53;;
19673;SDS011;9986;50.610;7.230;2023-07-22T01:53:59;8.73;;;5.83;;
19673;SDS011;9986;50.610;7.230;2023-07-22T01:56:44;7.13;;;5.40;;
19673;SDS011;9986;50.610;7.230;2023-07-22T01:59:27;6.47;;;5.87;;
19673;SDS011;9986;50.610;7.230;2023-07-22T02:02:11;12.80;;;6.17;;
19673;SDS011;9986;50.610;7.230;2023-07-22T02:04:55;6.83;;;5.80;;
19673;SDS011;9986;50.610;7.230;2023-07-22T02:07:38;8.73;;;6.37;;
19673;SDS011;9986;50.610;7.230;2023-07-22T02:10:23;8.50;;;6.57;;
19673;SDS011;9986;50.610;7.230;2023-07-22T02:13:01;8.47;;;6.60;;
19673;SDS011;9986;50.610;7.230;2023-07-22T02:15:39;6.67;;;6.00;;
19673;SDS011;9986;50.610;7.230;2023-07-22T02:18:18;8.33;;;6.77;;
19673;SDS011;9986;50.610;7.230;2023-07-22T02:21:04;11.00;;;6.53;;
19673;SDS011;9986;50.610;7.230;2023-07-22T02:26:17;7.90;;;6.20;;
19673;SDS011;9986;50.610;7.230;2023-07-22T02:28:57;10.10;;;5.90;;
19673;SDS011;9986;50.610;7.230;2023-07-22T02:31:34;7.73;;;6.53;;
19673;SDS011;9986;50.610;7.230;2023-07-22T02:34:18;7.63;;;6.67;;
19673;SDS011;9986;50.610;7.230;2023-07-22T02:37:02;9.00;;;6.77;;
19673;SDS011;9986;50.610;7.230;2023-07-22T02:39:46;7.70;;;6.90;;
19673;SDS011;9986;50.610;7.230;2023-07-22T02:42:24;9.70;;;6.60;;
19673;SDS011;9986;50.610;7.230;2023-07-22T02:45:01;7.87;;;6.50;;
19673;SDS011;9986;50.610;7.230;2023-07-22T02:47:39;7.20;;;6.50;;
19673;SDS011;9986;50.610;7.230;2023-07-22T02:50:17;8.87;;;5.97;;
19673;SDS011;9986;50.610;7.230;2023-07-22T02:53:01;8.37;;;6.50;;
19673;SDS011;9986;50.610;7.230;2023-07-22T02:55:44;8.77;;;6.70;;
19673;SDS011;9986;50.610;7.230;2023-07-22T02:58:22;8.07;;;6.30;;
19673;SDS011;9986;50.610;7.230;2023-07-22T03:01:01;8.17;;;6.70;;
19673;SDS011;9986;50.610;7.230;2023-07-22T03:03:46;9.17;;;6.33;;
19673;SDS011;9986;50.610;7.230;2023-07-22T03:06:34;7.90;;;6.73;;
19673;SDS011;9986;50.610;7.230;2023-07-22T03:09:11;7.23;;;5.23;;
19673;SDS011;9986;50.610;7.230;2023-07-22T03:11:49;6.90;;;6.10;;
19673;SDS011;9986;50.610;7.230;2023-07-22T03:14:33;9.17;;;6.40;;
19673;SDS011;9986;50.610;7.230;2023-07-22T03:19:54;8.67;;;6.57;;
19673;SDS011;9986;50.610;7.230;2023-07-22T03:22:40;9.77;;;6.53;;
19673;SDS011;9986;50.610;7.230;2023-07-22T03:25:24;7.43;;;6.00;;
19673;SDS011;9986;50.610;7.230;2023-07-22T03:28:02;7.63;;;6.17;;
19673;SDS011;9986;50.610;7.230;2023-07-22T03:30:40;13.07;;;6.53;;
19673;SDS011;9986;50.610;7.230;2023-07-22T03:33:17;7.47;;;6.67;;
19673;SDS011;9986;50.610;7.230;2023-07-22T03:36:06;7.10;;;6.00;;
19673;SDS011;9986;50.610;7.230;2023-07-22T03:38:44;10.37;;;7.17;;
19673;SDS011;9986;50.610;7.230;2023-07-22T03:41:22;7.90;;;6.27;;
19673;SDS011;9986;50.610;7.230;2023-07-22T03:43:59;12.83;;;6.67;;
19673;SDS011;9986;50.610;7.230;2023-07-22T03:46:37;8.63;;;6.20;;
19673;SDS011;9986;50.610;7.230;2023-07-22T03:49:15;8.53;;;6.07;;
19673;SDS011;9986;50.610;7.230;2023-07-22T03:51:53;7.53;;;6.73;;
19673;SDS011;9986;50.610;7.230;2023-07-22T03:57:13;10.93;;;5.80;;
19673;SDS011;9986;50.610;7.230;2023-07-22T03:59:50;8.00;;;6.07;;
19673;SDS011;9986;50.610;7.230;2023-07-22T04:02:28;9.63;;;6.73;;
19673;SDS011;9986;50.610;7.230;2023-07-22T04:05:06;12.47;;;6.37;;
19673;SDS011;9986;50.610;7.230;2023-07-22T04:07:50;9.47;;;6.20;;
19673;SDS011;9986;50.610;7.230;2023-07-22T04:10:28;8.23;;;6.13;;
19673;SDS011;9986;50.610;7.230;2023-07-22T04:13:06;12.30;;;6.53;;
19673;SDS011;9986;50.610;7.230;2023-07-22T04:15:49;9.53;;;6.43;;
19673;SDS011;9986;50.610;7.230;2023-07-22T04:18:27;9.37;;;6.10;;
19673;SDS011;9986;50.610;7.230;2023-07-22T04:23:44;8.77;;;5.67;;
19673;SDS011;9986;50.610;7.230;2023-07-22T04:26:33;9.80;;;5.70;;
19673;SDS011;9986;50.610;7.230;2023-07-22T04:29:10;8.10;;;6.20;;
19673;SDS011;9986;50.610;7.230;2023-07-22T04:31:57;9.90;;;5.93;;
19673;SDS011;9986;50.610;7.230;2023-07-22T04:34:35;8.47;;;6.40;;
19673;SDS011;9986;50.610;7.230;2023-07-22T04:37:13;8.03;;;6.10;;
19673;SDS011;9986;50.610;7.230;2023-07-22T04:42:35;7.93;;;6.00;;
19673;SDS011;9986;50.610;7.230;2023-07-22T04:45:12;9.73;;;7.10;;
19673;SDS011;9986;50.610;7.230;2023-07-22T04:50:25;9.20;;;6.37;;
19673;SDS011;9986;50.610;7.230;2023-07-22T04:53:03;8.47;;;6.80;;
19673;SDS011;9986;50.610;7.230;2023-07-22T04:58:23;10.27;;;6.80;;
19673;SDS011;9986;50.610;7.230;2023-07-22T05:01:00;8.90;;;6.93;;
19673;SDS011;9986;50.610;7.230;2023-07-22T05:03:38;9.33;;;6.83;;
19673;SDS011;9986;50.610;7.230;2023-07-22T05:06:17;11.13;;;5.93;;
19673;SDS011;9986;50.610;7.230;2023-07-22T05:09:00;9.40;;;7.63;;
19673;SDS011;9986;50.610;7.230;2023-07-22T05:11:44;9.00;;;6.83;;
19673;SDS011;9986;50.610;7.230;2023-07-22T05:14:22;9.37;;;6.67;;
19673;SDS011;9986;50.610;7.230;2023-07-22T05:17:06;8.50;;;6.43;;
19673;SDS011;9986;50.610;7.230;2023-07-22T05:19:49;11.23;;;7.13;;
19673;SDS011;9986;50.610;7.230;2023-07-22T05:22:35;7.90;;;6.67;;
19673;SDS011;9986;50.610;7.230;2023-07-22T05:25:18;9.77;;;6.77;;
19673;SDS011;9986;50.610;7.230;2023-07-22T05:27:56;7.20;;;6.40;;
19673;SDS011;9986;50.610;7.230;2023-07-22T05:33:09;14.40;;;6.67;;
19673;SDS011;9986;50.610;7.230;2023-07-22T05:35:47;12.57;;;6.97;;
19673;SDS011;9986;50.610;7.230;2023-07-22T05:38:24;8.27;;;7.00;;
19673;SDS011;9986;50.610;7.230;2023-07-22T05:41:02;8.83;;;7.13;;
19673;SDS011;9986;50.610;7.230;2023-07-22T05:43:40;14.50;;;7.90;;
19673;SDS011;9986;50.610;7.230;2023-07-22T05:46:23;9.13;;;7.67;;
19673;SDS011;9986;50.610;7.230;2023-07-22T05:49:01;10.23;;;7.60;;
19673;SDS011;9986;50.610;7.230;2023-07-22T05:51:47;10.00;;;7.63;;
19673;SDS011;9986;50.610;7.230;2023-07-22T05:54:25;9.50;;;7.17;;
19673;SDS011;9986;50.610;7.230;2023-07-22T05:57:03;12.43;;;8.00;;
19673;SDS011;9986;50.610;7.230;2023-07-22T05:59:41;9.67;;;7.73;;
19673;SDS011;9986;50.610;7.230;2023-07-22T06:02:18;13.67;;;7.77;;
19673;SDS011;9986;50.610;7.230;2023-07-22T06:04:56;11.97;;;7.53;;
19673;SDS011;9986;50.610;7.230;2023-07-22T06:07:34;12.13;;;8.00;;
19673;SDS011;9986;50.610;7.230;2023-07-22T06:10:11;10.10;;;8.23;;
19673;SDS011;9986;50.610;7.230;2023-07-22T06:12:55;11.60;;;8.17;;
19673;SDS011;9986;50.610;7.230;2023-07-22T06:18:05;9.43;;;7.93;;
19673;SDS011;9986;50.610;7.230;2023-07-22T06:20:43;10.33;;;8.00;;
19673;SDS011;9986;50.610;7.230;2023-07-22T06:23:26;9.40;;;8.33;;
19673;SDS011;9986;50.610;7.230;2023-07-22T06:26:10;15.30;;;9.33;;
19673;SDS011;9986;50.610;7.230;2023-07-22T06:31:23;10.87;;;8.70;;
19673;SDS011;9986;50.610;7.230;2023-07-22T06:36:49;9.40;;;8.10;;
19673;SDS011;9986;50.610;7.230;2023-07-22T06:39:26;13.60;;;8.23;;
19673;SDS011;9986;50.610;7.230;2023-07-22T06:42:10;11.23;;;7.73;;
19673;SDS011;9986;50.610;7.230;2023-07-22T06:44:48;13.50;;;8.70;;
19673;SDS011;9986;50.610;7.230;2023-07-22T06:47:25;9.40;;;8.20;;
19673;SDS011;9986;50.610;7.230;2023-07-22T06:50:03;9.37;;;8.33;;
19673;SDS011;9986;50.610;7.230;2023-07-22T06:52:48;12.47;;;8.30;;
19673;SDS011;9986;50.610;7.230;2023-07-22T06:55:31;11.17;;;8.27;;
19673;SDS011;9986;50.610;7.230;2023-07-22T06:58:15;13.03;;;8.50;;
19673;SDS011;9986;50.610;7.230;2023-07-22T07:00:55;10.97;;;8.33;;
19673;SDS011;9986;50.610;7.230;2023-07-22T07:03:34;10.93;;;8.10;;
19673;SDS011;9986;50.610;7.230;2023-07-22T07:06:12;9.73;;;8.37;;
19673;SDS011;9986;50.610;7.230;2023-07-22T07:08:55;10.07;;;7.90;;
19673;SDS011;9986;50.610;7.230;2023-07-22T07:11:33;10.33;;;7.83;;
19673;SDS011;9986;50.610;7.230;2023-07-22T07:14:17;10.60;;;6.57;;
19673;SDS011;9986;50.610;7.230;2023-07-22T07:16:54;11.37;;;6.93;;
19673;SDS011;9986;50.610;7.230;2023-07-22T07:19:32;9.83;;;7.10;;
19673;SDS011;9986;50.610;7.230;2023-07-22T07:22:10;8.43;;;6.40;;
19673;SDS011;9986;50.610;7.230;2023-07-22T07:24:47;10.03;;;7.07;;
19673;SDS011;9986;50.610;7.230;2023-07-22T07:27:25;9.00;;;6.80;;
19673;SDS011;9986;50.610;7.230;2023-07-22T07:30:03;8.23;;;6.60;;
19673;SDS011;9986;50.610;7.230;2023-07-22T07:32:42;9.50;;;6.53;;
19673;SDS011;9986;50.610;7.230;2023-07-22T07:35:26;14.77;;;7.03;;
19673;SDS011;9986;50.610;7.230;2023-07-22T07:38:04;8.20;;;6.93;;
19673;SDS011;9986;50.610;7.230;2023-07-22T07:40:42;8.80;;;6.50;;
19673;SDS011;9986;50.610;7.230;2023-07-22T07:43:19;8.60;;;6.90;;
19673;SDS011;9986;50.610;7.230;2023-07-22T07:46:12;9.33;;;7.27;;
19673;SDS011;9986;50.610;7.230;2023-07-22T07:48:52;7.23;;;6.50;;
19673;SDS011;9986;50.610;7.230;2023-07-22T07:51:31;9.20;;;6.63;;
19673;SDS011;9986;50.610;7.230;2023-07-22T07:54:08;8.47;;;6.40;;
19673;SDS011;9986;50.610;7.230;2023-07-22T07:56:46;8.97;;;6.43;;
19673;SDS011;9986;50.610;7.230;2023-07-22T07:59:30;6.33;;;5.73;;
19673;SDS011;9986;50.610;7.230;2023-07-22T08:02:08;8.23;;;6.17;;
19673;SDS011;9986;50.610;7.230;2023-07-22T08:04:51;7.63;;;5.87;;
19673;SDS011;9986;50.610;7.230;2023-07-22T08:07:29;6.90;;;5.50;;
19673;SDS011;9986;50.610;7.230;2023-07-22T08:10:13;6.53;;;5.77;;
19673;SDS011;9986;50.610;7.230;2023-07-22T08:12:56;9.30;;;5.43;;
19673;SDS011;9986;50.610;7.230;2023-07-22T08:15:34;6.67;;;5.87;;
19673;SDS011;9986;50.610;7.230;2023-07-22T08:18:12;6.33;;;5.50;;
19673;SDS011;9986;50.610;7.230;2023-07-22T08:20:50;8.17;;;5.53;;
19673;SDS011;9986;50.610;7.230;2023-07-22T08:23:34;8.80;;;5.07;;
19673;SDS011;9986;50.610;7.230;2023-07-22T08:26:18;6.87;;;4.90;;
19673;SDS011;9986;50.610;7.230;2023-07-22T08:28:56;5.13;;;4.67;;
19673;SDS011;9986;50.610;7.230;2023-07-22T08:31:33;7.77;;;5.20;;
19673;SDS011;9986;50.610;7.230;2023-07-22T08:34:17;6.77;;;5.33;;
19673;SDS011;9986;50.610;7.230;2023-07-22T08:37:01;6.87;;;4.63;;
19673;SDS011;9986;50.610;7.230;2023-07-22T08:39:38;7.10;;;4.50;;
19673;SDS011;9986;50.610;7.230;2023-07-22T08:44:53;5.03;;;4.53;;
19673;SDS011;9986;50.610;7.230;2023-07-22T08:47:30;6.10;;;4.50;;
19673;SDS011;9986;50.610;7.230;2023-07-22T08:50:10;7.37;;;4.70;;
19673;SDS011;9986;50.610;7.230;2023-07-22T08:55:25;7.30;;;4.43;;
19673;SDS011;9986;50.610;7.230;2023-07-22T09:00:39;6.43;;;4.00;;
19673;SDS011;9986;50.610;7.230;2023-07-22T09:05:53;6.00;;;4.00;;
19673;SDS011;9986;50.610;7.230;2023-07-22T09:11:14;4.43;;;3.57;;
19673;SDS011;9986;50.610;7.230;2023-07-22T09:14:05;4.40;;;3.20;;
19673;SDS011;9986;50.610;7.230;2023-07-22T09:16:50;5.83;;;3.43;;
19673;SDS011;9986;50.610;7.230;2023-07-22T09:19:36;4.13;;;3.73;;
19673;SDS011;9986;50.610;7.230;2023-07-22T09:22:19;3.70;;;3.40;;
19673;SDS011;9986;50.610;7.230;2023-07-22T09:25:14;4.07;;;3.00;;
19673;SDS011;9986;50.610;7.230;2023-07-22T09:28:02;2.20;;;2.00;;
19673;SDS011;9986;50.610;7.230;2023-07-22T09:33:31;2.70;;;1.63;;
19673;SDS011;9986;50.610;7.230;2023-07-22T09:38:59;1.87;;;1.77;;
19673;SDS011;9986;50.610;7.230;2023-07-22T09:41:43;2.30;;;2.10;;
19673;SDS011;9986;50.610;7.230;2023-07-22T09:47:08;3.70;;;2.00;;
19673;SDS011;9986;50.610;7.230;2023-07-22T09:52:22;2.17;;;2.00;;
19673;SDS011;9986;50.610;7.230;2023-07-22T09:55:06;1.97;;;1.87;;
19673;SDS011;9986;50.610;7.230;2023-07-22T09:57:45;2.93;;;2.10;;
19673;SDS011;9986;50.610;7.230;2023-07-22T10:00:23;3.03;;;2.27;;
19673;SDS011;9986;50.610;7.230;2023-07-22T10:05:35;2.27;;;2.17;;
19673;SDS011;9986;50.610;7.230;2023-07-22T10:10:51;2.83;;;2.20;;
19673;SDS011;9986;50.610;7.230;2023-07-22T10:13:29;2.83;;;2.00;;
19673;SDS011;9986;50.610;7.230;2023-07-22T10:18:42;4.10;;;2.10;;
19673;SDS011;9986;50.610;7.230;2023-07-22T10:21:20;2.77;;;1.97;;
19673;SDS011;9986;50.610;7.230;2023-07-22T10:24:03;2.37;;;2.10;;
19673;SDS011;9986;50.610;7.230;2023-07-22T10:26:35;2.80;;;2.60;;
19673;SDS011;9986;50.610;7.230;2023-07-22T10:29:13;2.73;;;2.53;;
19673;SDS011;9986;50.610;7.230;2023-07-22T10:31:57;2.77;;;2.13;;
19673;SDS011;9986;50.610;7.230;2023-07-22T10:34:40;2.33;;;2.13;;
19673;SDS011;9986;50.610;7.230;2023-07-22T10:37:18;2.40;;;2.20;;
19673;SDS011;9986;50.610;7.230;2023-07-22T10:40:02;2.77;;;1.77;;
19673;SDS011;9986;50.610;7.230;2023-07-22T10:45:53;2.53;;;1.93;;
19673;SDS011;9986;50.610;7.230;2023-07-22T10:51:19;4.20;;;2.13;;
19673;SDS011;9986;50.610;7.230;2023-07-22T10:54:03;1.87;;;1.77;;
19673;SDS011;9986;50.610;7.230;2023-07-22T10:56:54;2.10;;;1.90;;
19673;SDS011;9986;50.610;7.230;2023-07-22T10:59:34;1.70;;;1.60;;
19673;SDS011;9986;50.610;7.230;2023-07-22T11:02:22;1.80;;;1.70;;
19673;SDS011;9986;50.610;7.230;2023-07-22T11:07:42;2.17;;;1.60;;
19673;SDS011;9986;50.610;7.230;2023-07-22T11:10:24;1.77;;;1.67;;
19673;SDS011;9986;50.610;7.230;2023-07-22T11:13:10;1.80;;;1.70;;
19673;SDS011;9986;50.610;7.230;2023-07-22T11:15:54;1.82;;;1.72;;
19673;SDS011;9986;50.610;7.230;2023-07-22T11:18:42;1.70;;;1.60;;
19673;SDS011;9986;50.610;7.230;2023-07-22T11:21:28;2.83;;;1.60;;
19673;SDS011;9986;50.610;7.230;2023-07-22T11:24:06;2.08;;;1.87;;
19673;SDS011;9986;50.610;7.230;2023-07-22T11:26:45;1.60;;;1.47;;
19673;SDS011;9986;50.610;7.230;2023-07-22T11:31:58;1.75;;;1.65;;
19673;SDS011;9986;50.610;7.230;2023-07-22T11:34:36;1.87;;;1.77;;
19673;SDS011;9986;50.610;7.230;2023-07-22T11:37:21;3.47;;;1.67;;
19673;SDS011;9986;50.610;7.230;2023-07-22T11:40:00;1.98;;;1.87;;
19673;SDS011;9986;50.610;7.230;2023-07-22T11:42:44;1.82;;;1.72;;
19673;SDS011;9986;50.610;7.230;2023-07-22T11:45:32;1.70;;;1.60;;
19673;SDS011;9986;50.610;7.230;2023-07-22T11:48:16;5.30;;;4.55;;
19673;SDS011;9986;50.610;7.230;2023-07-22T11:51:00;2.22;;;2.00;;
19673;SDS011;9986;50.610;7.230;2023-07-22T11:53:38;2.02;;;1.82;;
19673;SDS011;9986;50.610;7.230;2023-07-22T11:56:18;2.02;;;1.80;;
19673;SDS011;9986;50.610;7.230;2023-07-22T11:59:03;2.05;;;1.62;;
19673;SDS011;9986;50.610;7.230;2023-07-22T12:01:42;2.02;;;1.82;;
19673;SDS011;9986;50.610;7.230;2023-07-22T12:04:23;2.08;;;1.87;;
19673;SDS011;9986;50.610;7.230;2023-07-22T12:07:01;2.33;;;2.12;;
19673;SDS011;9986;50.610;7.230;2023-07-22T12:09:39;1.80;;;1.70;;
19673;SDS011;9986;50.610;7.230;2023-07-22T12:12:31;1.65;;;1.55;;
19673;SDS011;9986;50.610;7.230;2023-07-22T12:15:16;5.42;;;4.90;;
19673;SDS011;9986;50.610;7.230;2023-07-22T12:20:42;2.17;;;1.92;;
19673;SDS011;9986;50.610;7.230;2023-07-22T12:23:20;2.35;;;2.15;;
19673;SDS011;9986;50.610;7.230;2023-07-22T12:26:03;1.87;;;1.77;;
19673;SDS011;9986;50.610;7.230;2023-07-22T12:28:43;1.90;;;1.80;;
19673;SDS011;9986;50.610;7.230;2023-07-22T12:34:00;2.35;;;2.20;;
19673;SDS011;9986;50.610;7.230;2023-07-22T12:36:46;2.02;;;1.92;;
19673;SDS011;9986;50.610;7.230;2023-07-22T12:42:00;2.50;;;2.30;;
19673;SDS011;9986;50.610;7.230;2023-07-22T12:44:43;2.92;;;2.50;;
19673;SDS011;9986;50.610;7.230;2023-07-22T12:47:21;2.45;;;2.25;;
19673;SDS011;9986;50.610;7.230;2023-07-22T12:52:34;2.10;;;2.00;;
19673;SDS011;9986;50.610;7.230;2023-07-22T12:55:12;2.37;;;2.17;;
19673;SDS011;9986;50.610;7.230;2023-07-22T12:57:49;2.17;;;1.95;;
19673;SDS011;9986;50.610;7.230;2023-07-22T13:00:27;2.05;;;1.82;;
19673;SDS011;9986;50.610;7.230;2023-07-22T13:05:56;2.37;;;2.17;;
19673;SDS011;9986;50.610;7.230;2023-07-22T13:11:24;1.82;;;1.72;;
19673;SDS011;9986;50.610;7.230;2023-07-22T13:14:01;2.37;;;2.08;;
19673;SDS011;9986;50.610;7.230;2023-07-22T13:19:11;2.45;;;1.95;;
19673;SDS011;9986;50.610;7.230;2023-07-22T13:21:56;3.00;;;2.70;;
19673;SDS011;9986;50.610;7.230;2023-07-22T13:27:06;3.15;;;2.10;;
19673;SDS011;9986;50.610;7.230;2023-07-22T13:29:44;2.85;;;2.55;;
19673;SDS011;9986;50.610;7.230;2023-07-22T13:32:22;2.40;;;2.20;;
19673;SDS011;9986;50.610;7.230;2023-07-22T13:35:00;2.70;;;2.50;;
19673;SDS011;9986;50.610;7.230;2023-07-22T13:37:37;2.35;;;1.95;;
19673;SDS011;9986;50.610;7.230;2023-07-22T13:40:22;3.52;;;2.45;;
19673;SDS011;9986;50.610;7.230;2023-07-22T13:43:02;3.77;;;2.35;;
19673;SDS011;9986;50.610;7.230;2023-07-22T13:45:40;2.50;;;2.30;;
19673;SDS011;9986;50.610;7.230;2023-07-22T13:51:07;3.25;;;2.95;;
19673;SDS011;9986;50.610;7.230;2023-07-22T13:53:45;3.08;;;2.65;;
19673;SDS011;9986;50.610;7.230;2023-07-22T13:56:23;2.42;;;2.22;;
19673;SDS011;9986;50.610;7.230;2023-07-22T13:59:06;3.08;;;2.60;;
19673;SDS011;9986;50.610;7.230;2023-07-22T14:01:52;2.95;;;2.58;;
19673;SDS011;9986;50.610;7.230;2023-07-22T14:10:01;2.60;;;2.37;;
19673;SDS011;9986;50.610;7.230;2023-07-22T14:12:45;2.40;;;2.20;;
19673;SDS011;9986;50.610;7.230;2023-07-22T14:15:22;2.55;;;2.17;;
19673;SDS011;9986;50.610;7.230;2023-07-22T14:20:42;5.85;;;2.52;;
19673;SDS011;9986;50.610;7.230;2023-07-22T14:23:28;3.37;;;2.58;;
19673;SDS011;9986;50.610;7.230;2023-07-22T14:28:41;2.60;;;2.30;;
19673;SDS011;9986;50.610;7.230;2023-07-22T14:31:26;3.17;;;2.65;;
19673;SDS011;9986;50.610;7.230;2023-07-22T14:34:04;2.90;;;2.70;;
19673;SDS011;9986;50.610;7.230;2023-07-22T14:36:48;2.98;;;2.67;;
19673;SDS011;9986;50.610;7.230;2023-07-22T14:39:31;2.80;;;2.60;;
19673;SDS011;9986;50.610;7.230;2023-07-22T14:42:09;2.95;;;2.75;;
19673;SDS011;9986;50.610;7.230;2023-07-22T14:44:55;2.80;;;2.55;;
19673;SDS011;9986;50.610;7.230;2023-07-22T14:50:09;3.12;;;2.83;;
19673;SDS011;9986;50.610;7.230;2023-07-22T14:52:53;3.25;;;2.75;;
19673;SDS011;9986;50.610;7.230;2023-07-22T14:55:30;3.20;;;2.90;;
19673;SDS011;9986;50.610;7.230;2023-07-22T14:58:08;3.75;;;3.45;;
19673;SDS011;9986;50.610;7.230;2023-07-22T15:00:46;3.47;;;2.67;;
19673;SDS011;9986;50.610;7.230;2023-07-22T15:03:23;4.12;;;2.75;;
19673;SDS011;9986;50.610;7.230;2023-07-22T15:06:07;3.58;;;3.00;;
19673;SDS011;9986;50.610;7.230;2023-07-22T15:08:45;3.42;;;2.90;;
19673;SDS011;9986;50.610;7.230;2023-07-22T15:11:22;3.35;;;2.87;;
19673;SDS011;9986;50.610;7.230;2023-07-22T15:16:49;7.20;;;6.30;;
19673;SDS011;9986;50.610;7.230;2023-07-22T15:19:33;5.08;;;3.15;;
19673;SDS011;9986;50.610;7.230;2023-07-22T15:22:16;3.40;;;3.10;;
19673;SDS011;9986;50.610;7.230;2023-07-22T15:24:54;3.55;;;3.20;;
19673;SDS011;9986;50.610;7.230;2023-07-22T15:27:32;5.05;;;3.10;;
19673;SDS011;9986;50.610;7.230;2023-07-22T15:30:10;9.40;;;3.72;;
19673;SDS011;9986;50.610;7.230;2023-07-22T15:32:54;3.37;;;3.08;;
19673;SDS011;9986;50.610;7.230;2023-07-22T15:35:37;4.67;;;3.08;;
19673;SDS011;9986;50.610;7.230;2023-07-22T15:38:21;3.45;;;2.77;;
19673;SDS011;9986;50.610;7.230;2023-07-22T15:41:05;4.15;;;3.47;;
19673;SDS011;9986;50.610;7.230;2023-07-22T15:43:48;3.75;;;2.95;;
19673;SDS011;9986;50.610;7.230;2023-07-22T15:46:32;4.17;;;3.33;;
19673;SDS011;9986;50.610;7.230;2023-07-22T15:49:16;4.12;;;3.52;;
19673;SDS011;9986;50.610;7.230;2023-07-22T15:51:59;4.37;;;3.83;;
19673;SDS011;9986;50.610;7.230;2023-07-22T15:54:37;4.08;;;3.67;;
19673;SDS011;9986;50.610;7.230;2023-07-22T16:02:32;4.05;;;3.47;;
19673;SDS011;9986;50.610;7.230;2023-07-22T16:05:10;4.08;;;3.67;;
19673;SDS011;9986;50.610;7.230;2023-07-22T16:07:48;4.37;;;3.30;;
19673;SDS011;9986;50.610;7.230;2023-07-22T16:10:40;4.33;;;3.20;;
19673;SDS011;9986;50.610;7.230;2023-07-22T16:13:24;5.85;;;3.30;;
19673;SDS011;9986;50.610;7.230;2023-07-22T16:16:02;3.52;;;3.22;;
19673;SDS011;9986;50.610;7.230;2023-07-22T16:21:15;3.58;;;3.05;;
19673;SDS011;9986;50.610;7.230;2023-07-22T16:23:53;2.90;;;2.70;;
19673;SDS011;9986;50.610;7.230;2023-07-22T16:26:36;4.12;;;2.75;;
19673;SDS011;9986;50.610;7.230;2023-07-22T16:29:20;3.72;;;3.00;;
19673;SDS011;9986;50.610;7.230;2023-07-22T16:31:58;3.52;;;2.80;;
19673;SDS011;9986;50.610;7.230;2023-07-22T16:34:36;3.95;;;3.30;;
19673;SDS011;9986;50.610;7.230;2023-07-22T16:39:49;4.30;;;3.90;;
19673;SDS011;9986;50.610;7.230;2023-07-22T16:45:09;4.10;;;3.20;;
19673;SDS011;9986;50.610;7.230;2023-07-22T16:47:52;3.62;;;3.33;;
19673;SDS011;9986;50.610;7.230;2023-07-22T16:50:36;3.33;;;3.02;;
19673;SDS011;9986;50.610;7.230;2023-07-22T16:53:21;3.50;;;3.20;;
19673;SDS011;9986;50.610;7.230;2023-07-22T16:56:04;4.28;;;3.70;;
19673;SDS011;9986;50.610;7.230;2023-07-22T16:58:42;3.55;;;3.25;;
19673;SDS011;9986;50.610;7.230;2023-07-22T17:01:26;3.72;;;3.42;;
19673;SDS011;9986;50.610;7.230;2023-07-22T17:06:39;3.95;;;3.02;;
19673;SDS011;9986;50.610;7.230;2023-07-22T17:09:17;6.33;;;2.95;;
19673;SDS011;9986;50.610;7.230;2023-07-22T17:11:55;3.30;;;3.00;;
19673;SDS011;9986;50.610;7.230;2023-07-22T17:17:08;5.25;;;3.22;;
19673;SDS011;9986;50.610;7.230;2023-07-22T17:19:45;3.60;;;3.05;;
19673;SDS011;9986;50.610;7.230;2023-07-22T17:22:23;5.30;;;4.40;;
19673;SDS011;9986;50.610;7.230;2023-07-22T17:27:36;3.00;;;2.67;;
19673;SDS011;9986;50.610;7.230;2023-07-22T17:30:22;3.25;;;2.72;;
19673;SDS011;9986;50.610;7.230;2023-07-22T17:33:06;3.42;;;2.80;;
19673;SDS011;9986;50.610;7.230;2023-07-22T17:35:50;3.20;;;2.90;;
19673;SDS011;9986;50.610;7.230;2023-07-22T17:41:04;3.27;;;2.70;;
19673;SDS011;9986;50.610;7.230;2023-07-22T17:46:32;4.17;;;2.60;;
19673;SDS011;9986;50.610;7.230;2023-07-22T17:49:23;3.83;;;2.52;;
19673;SDS011;9986;50.610;7.230;2023-07-22T17:52:07;3.20;;;2.15;;
19673;SDS011;9986;50.610;7.230;2023-07-22T17:54:45;2.83;;;2.42;;
19673;SDS011;9986;50.610;7.230;2023-07-22T17:59:58;3.95;;;2.85;;
19673;SDS011;9986;50.610;7.230;2023-07-22T18:02:36;3.40;;;2.60;;
19673;SDS011;9986;50.610;7.230;2023-07-22T18:05:21;4.22;;;2.17;;
19673;SDS011;9986;50.610;7.230;2023-07-22T18:10:36;2.62;;;2.42;;
19673;SDS011;9986;50.610;7.230;2023-07-22T18:13:20;5.05;;;4.30;;
19673;SDS011;9986;50.610;7.230;2023-07-22T18:16:04;3.20;;;2.90;;
19673;SDS011;9986;50.610;7.230;2023-07-22T18:18:48;3.35;;;2.65;;
19673;SDS011;9986;50.610;7.230;2023-07-22T18:21:32;4.00;;;2.30;;
19673;SDS011;9986;50.610;7.230;2023-07-22T18:24:09;3.83;;;2.70;;
19673;SDS011;9986;50.610;7.230;2023-07-22T18:26:53;3.40;;;2.45;;
19673;SDS011;9986;50.610;7.230;2023-07-22T18:29:37;2.33;;;2.12;;
19673;SDS011;9986;50.610;7.230;2023-07-22T18:32:17;3.85;;;2.17;;
19673;SDS011;9986;50.610;7.230;2023-07-22T18:37:30;2.90;;;2.30;;
19673;SDS011;9986;50.610;7.230;2023-07-22T18:40:09;4.78;;;2.37;;
19673;SDS011;9986;50.610;7.230;2023-07-22T18:42:53;2.83;;;2.62;;
19673;SDS011;9986;50.610;7.230;2023-07-22T18:45:39;2.50;;;2.30;;
19673;SDS011;9986;50.610;7.230;2023-07-22T18:48:17;2.67;;;2.47;;
19673;SDS011;9986;50.610;7.230;2023-07-22T18:51:01;4.90;;;2.35;;
19673;SDS011;9986;50.610;7.230;2023-07-22T18:53:45;4.67;;;2.45;;
19673;SDS011;9986;50.610;7.230;2023-07-22T18:56:28;3.40;;;2.17;;
19673;SDS011;9986;50.610;7.230;2023-07-22T18:59:12;3.37;;;2.02;;
19673;SDS011;9986;50.610;7.230;2023-07-22T19:01:50;2.92;;;2.52;;
19673;SDS011;9986;50.610;7.230;2023-07-22T19:04:35;2.05;;;1.90;;
19673;SDS011;9986;50.610;7.230;2023-07-22T19:07:13;2.85;;;2.45;;
19673;SDS011;9986;50.610;7.230;2023-07-22T19:12:36;4.35;;;2.42;;